createdAt,value
2023-02-18T00:03:02.490Z,12.20
2023-02-18T00:07:07.647Z,12.20
2023-02-18T00:11:10.907Z,12.20
2023-02-18T00:15:16.376Z,12.20
2023-02-18T00:19:23.584Z,12.20
2023-02-18T00:23:29.676Z,12.20
2023-02-18T00:27:32.816Z,12.20
2023-02-18T00:31:38.553Z,12.20
2023-02-18T00:35:43.061Z,12.20
2023-02-18T00:39:47.754Z,12.20
2023-02-18T00:43:54.017Z,12.20
2023-02-18T00:47:57.167Z,12.20
2023-02-18T00:52:01.752Z,12.20
2023-02-18T00:56:05.824Z,12.20
2023-02-18T01:00:10.644Z,12.20
2023-02-18T01:04:16.366Z,12.20
2023-02-18T01:08:25.053Z,12.20
2023-02-18T01:12:29.972Z,12.20
2023-02-18T01:16:33.087Z,12.30
2023-02-18T01:20:41.054Z,12.30
2023-02-18T01:24:46.469Z,12.30
2023-02-18T01:28:49.597Z,12.20
2023-02-18T01:32:52.863Z,12.20
2023-02-18T01:36:57.370Z,12.20
2023-02-18T01:41:01.875Z,12.20
2023-02-18T01:45:41.037Z,12.20
2023-02-18T01:49:47.681Z,12.20
2023-02-18T01:53:56.291Z,12.20
2023-02-18T01:58:02.706Z,12.10
2023-02-18T02:02:08.379Z,12.10
2023-02-18T02:06:17.937Z,12.10
2023-02-18T02:10:21.541Z,12.10
2023-02-18T02:14:41.802Z,12.10
2023-02-18T02:18:56.547Z,12.10
2023-02-18T02:24:02.325Z,12.10
2023-02-18T02:28:34.044Z,12.10
2023-02-18T02:33:16.096Z,12.10
2023-02-18T02:37:27.198Z,12.10
2023-02-18T02:41:47.745Z,12.10
2023-02-18T02:45:59.608Z,12.20
2023-02-18T02:50:09.398Z,12.20
2023-02-18T02:54:19.949Z,12.20
2023-02-18T02:58:26.768Z,12.20
2023-02-18T03:02:42.288Z,12.20
2023-02-18T03:07:01.334Z,12.20
2023-02-18T03:11:08.183Z,12.20
2023-02-18T03:15:25.884Z,12.20
2023-02-18T03:19:34.155Z,12.20
2023-02-18T03:23:47.945Z,12.20
2023-02-18T03:27:56.323Z,12.20
2023-02-18T03:32:04.320Z,12.30
2023-02-18T03:36:16.340Z,12.30
2023-02-18T03:40:22.449Z,12.30
2023-02-18T03:44:29.413Z,12.30
2023-02-18T03:48:32.453Z,12.20
2023-02-18T03:52:36.808Z,12.20
2023-02-18T03:56:39.852Z,12.20
2023-02-18T04:00:44.906Z,12.20
2023-02-18T04:04:48.052Z,12.10
2023-02-18T04:08:53.511Z,12.10
2023-02-18T04:12:56.821Z,12.00
2023-02-18T04:17:03.166Z,11.80
2023-02-18T04:21:09.424Z,11.70
2023-02-18T04:25:12.744Z,11.80
2023-02-18T04:29:18.910Z,11.80
2023-02-18T04:33:25.558Z,11.80
2023-02-18T04:37:28.594Z,11.90
2023-02-18T04:41:34.937Z,11.90
2023-02-18T04:45:38.199Z,11.90
2023-02-18T04:49:47.324Z,11.90
2023-02-18T04:53:51.881Z,11.90
2023-02-18T04:57:58.158Z,11.90
2023-02-18T05:02:02.735Z,11.90
2023-02-18T05:06:10.176Z,11.90
2023-02-18T05:10:20.829Z,11.80
2023-02-18T05:14:26.771Z,11.90
2023-02-18T05:18:33.004Z,11.90
2023-02-18T05:22:40.372Z,11.90
2023-02-18T05:26:43.422Z,11.90
2023-02-18T05:30:50.352Z,11.90
2023-02-18T05:34:56.355Z,11.90
2023-02-18T05:39:02.132Z,12.00
2023-02-18T05:43:08.156Z,12.00
2023-02-18T05:47:13.568Z,12.00
2023-02-18T05:51:16.837Z,12.00
2023-02-18T05:55:21.574Z,12.00
2023-02-18T05:59:25.277Z,12.00
2023-02-18T06:03:28.580Z,11.90
2023-02-18T06:07:43.394Z,11.90
2023-02-18T06:11:50.271Z,11.80
2023-02-18T06:15:53.708Z,11.70
2023-02-18T06:19:56.775Z,11.70
2023-02-18T06:23:59.836Z,11.50
2023-02-18T06:28:04.639Z,11.40
2023-02-18T06:32:10.910Z,11.20
2023-02-18T06:36:17.249Z,11.10
2023-02-18T06:40:22.820Z,11.10
2023-02-18T06:44:32.329Z,11.10
2023-02-18T06:48:35.529Z,11.10
2023-02-18T06:52:39.173Z,11.00
2023-02-18T06:56:42.461Z,10.90
2023-02-18T07:00:49.752Z,10.80
2023-02-18T07:04:52.957Z,10.80
2023-02-18T07:08:56.263Z,10.80
2023-02-18T07:13:01.595Z,10.70
2023-02-18T07:17:06.103Z,10.70
2023-02-18T07:21:13.739Z,10.70
2023-02-18T07:25:17.235Z,10.70
2023-02-18T07:29:20.247Z,10.60
2023-02-18T07:33:24.890Z,10.70
2023-02-18T07:37:28.030Z,10.70
2023-02-18T07:41:31.203Z,10.70
2023-02-18T07:45:34.361Z,10.70
2023-02-18T07:49:38.816Z,10.70
2023-02-18T07:53:42.514Z,10.80
2023-02-18T07:58:00.431Z,10.80
2023-02-18T08:02:07.741Z,10.90
2023-02-18T08:06:22.278Z,10.90
2023-02-18T08:10:25.436Z,11.00
2023-02-18T08:14:29.126Z,11.10
2023-02-18T08:18:38.533Z,11.20
2023-02-18T08:22:42.940Z,11.30
2023-02-18T08:27:00.256Z,11.40
2023-02-18T08:31:06.693Z,11.60
2023-02-18T08:35:14.397Z,11.60
2023-02-18T08:39:31.889Z,11.80
2023-02-18T08:43:34.983Z,11.80
2023-02-18T08:48:17.157Z,11.90
2023-02-18T08:52:04.377Z,12.00
2023-02-18T08:56:11.008Z,12.10
2023-02-18T09:00:17.744Z,12.10
2023-02-18T09:04:23.739Z,12.30
2023-02-18T09:08:32.086Z,12.40
2023-02-18T09:12:36.916Z,12.60
2023-02-18T09:16:42.178Z,12.70
2023-02-18T09:20:47.245Z,12.90
2023-02-18T09:24:52.242Z,13.20
2023-02-18T09:28:58.250Z,13.30
2023-02-18T09:33:03.287Z,13.40
2023-02-18T09:37:09.171Z,13.50
2023-02-18T09:41:36.037Z,13.70
2023-02-18T09:45:41.060Z,13.80
2023-02-18T09:50:00.851Z,13.90
2023-02-18T09:54:03.933Z,14.00
2023-02-18T09:58:13.968Z,14.20
2023-02-18T10:02:21.846Z,14.30
2023-02-18T10:06:31.049Z,14.30
2023-02-18T10:10:40.627Z,14.30
2023-02-18T10:14:45.697Z,14.30
2023-02-18T10:18:57.182Z,14.20
2023-02-18T10:23:07.381Z,14.20
2023-02-18T10:27:11.088Z,14.30
2023-02-18T10:31:24.174Z,14.50
2023-02-18T10:35:36.108Z,14.60
2023-02-18T10:39:55.150Z,14.60
2023-02-18T10:44:08.412Z,14.60
2023-02-18T10:48:37.866Z,14.60
2023-02-18T10:52:48.818Z,14.80
2023-02-18T10:56:53.587Z,15.00
2023-02-18T11:00:58.093Z,15.00
2023-02-18T11:05:20.232Z,14.90
2023-02-18T11:09:32.071Z,14.80
2023-02-18T11:13:35.517Z,14.80
2023-02-18T11:17:41.912Z,14.80
2023-02-18T11:21:47.200Z,14.80
2023-02-18T11:26:02.111Z,14.80
2023-02-18T11:30:19.919Z,14.90
2023-02-18T11:34:28.549Z,15.00
2023-02-18T11:38:39.312Z,15.00
2023-02-18T11:42:46.457Z,15.20
2023-02-18T11:47:02.622Z,15.30
2023-02-18T11:51:07.358Z,15.40
2023-02-18T11:55:18.193Z,15.30
2023-02-18T11:59:24.883Z,15.40
2023-02-18T12:03:35.923Z,15.60
2023-02-18T12:07:47.200Z,15.40
2023-02-18T12:11:58.613Z,15.30
2023-02-18T12:16:17.315Z,15.40
2023-02-18T12:21:04.896Z,15.20
2023-02-18T12:25:23.810Z,15.20
2023-02-18T12:29:42.210Z,15.20
2023-02-18T12:33:57.775Z,15.20
2023-02-18T12:38:13.832Z,15.10
2023-02-18T12:42:47.438Z,15.00
2023-02-18T12:47:05.315Z,15.00
2023-02-18T12:51:36.569Z,14.90
2023-02-18T12:55:55.895Z,14.80
2023-02-18T13:00:33.391Z,14.80
2023-02-18T13:04:54.160Z,14.80
2023-02-18T13:09:11.047Z,15.00
2023-02-18T13:13:19.387Z,14.90
2023-02-18T13:17:23.154Z,14.90
2023-02-18T13:21:27.534Z,14.90
2023-02-18T13:25:35.577Z,15.00
2023-02-18T13:29:43.697Z,14.90
2023-02-18T13:33:54.839Z,15.00
2023-02-18T13:38:10.015Z,15.00
2023-02-18T13:42:43.323Z,15.00
2023-02-18T13:46:51.638Z,15.00
2023-02-18T13:50:57.838Z,14.90
2023-02-18T13:55:00.889Z,14.90
2023-02-18T13:59:17.875Z,14.80
2023-02-18T14:03:40.156Z,14.70
2023-02-18T14:07:48.348Z,14.70
2023-02-18T14:11:56.593Z,14.70
2023-02-18T14:16:02.108Z,14.70
2023-02-18T14:20:47.478Z,14.70
2023-02-18T14:24:56.987Z,14.70
2023-02-18T14:29:06.034Z,14.60
2023-02-18T14:33:17.385Z,14.60
2023-02-18T14:38:06.776Z,14.60
2023-02-18T14:42:25.156Z,14.50
2023-02-18T14:46:41.337Z,14.40
2023-02-18T14:50:50.369Z,14.40
2023-02-18T14:54:58.194Z,14.40
2023-02-18T14:59:04.278Z,14.30
2023-02-18T15:03:14.563Z,14.20
2023-02-18T15:07:22.869Z,14.20
2023-02-18T15:11:29.773Z,14.10
2023-02-18T15:15:35.473Z,14.10
2023-02-18T15:19:45.212Z,14.00
2023-02-18T15:23:50.279Z,14.00
2023-02-18T15:27:57.575Z,13.90
2023-02-18T15:32:01.810Z,13.90
2023-02-18T15:36:09.438Z,13.90
2023-02-18T15:40:17.395Z,13.80
2023-02-18T15:44:24.311Z,13.80
2023-02-18T15:48:37.243Z,13.80
2023-02-18T15:52:41.874Z,13.80
2023-02-18T15:56:53.399Z,13.70
2023-02-18T16:01:05.865Z,13.70
2023-02-18T16:05:15.250Z,13.70
2023-02-18T16:09:26.054Z,13.60
2023-02-18T16:13:31.480Z,13.60
2023-02-18T16:17:34.713Z,13.60
2023-02-18T16:21:40.662Z,13.60
2023-02-18T16:25:54.024Z,13.50
2023-02-18T16:30:02.981Z,13.50
2023-02-18T16:34:07.965Z,13.50
2023-02-18T16:38:20.686Z,13.40
2023-02-18T16:42:26.781Z,13.30
2023-02-18T16:46:35.378Z,13.20
2023-02-18T16:50:39.204Z,13.10
2023-02-18T16:54:42.266Z,12.90
2023-02-18T16:58:47.882Z,12.80
2023-02-18T17:02:55.729Z,12.60
2023-02-18T17:06:59.091Z,12.50
2023-02-18T17:11:03.847Z,12.40
2023-02-18T17:15:19.012Z,12.40
2023-02-18T17:19:23.450Z,12.30
2023-02-18T17:23:27.730Z,12.10
2023-02-18T17:27:30.827Z,11.90
2023-02-18T17:31:39.025Z,11.80
2023-02-18T17:35:47.437Z,11.80
2023-02-18T17:39:51.445Z,11.80
2023-02-18T17:43:58.313Z,11.70
2023-02-18T17:48:03.225Z,11.60
2023-02-18T17:52:08.154Z,11.40
2023-02-18T17:56:14.365Z,11.20
2023-02-18T18:00:21.165Z,11.10
2023-02-18T18:04:24.237Z,11.10
2023-02-18T18:08:31.383Z,11.00
2023-02-18T18:12:37.750Z,10.90
2023-02-18T18:16:45.463Z,10.90
2023-02-18T18:20:54.740Z,10.80
2023-02-18T18:24:59.630Z,10.80
2023-02-18T18:29:04.518Z,10.80
2023-02-18T18:33:15.872Z,10.80
2023-02-18T18:37:20.469Z,10.80
2023-02-18T18:41:26.813Z,10.70
2023-02-18T18:45:46.315Z,10.70
2023-02-18T18:49:50.484Z,10.70
2023-02-18T18:54:01.130Z,10.70
2023-02-18T18:58:06.545Z,10.70
2023-02-18T19:02:19.991Z,10.60
2023-02-18T19:06:23.366Z,10.60
2023-02-18T19:10:28.680Z,10.50
2023-02-18T19:14:33.080Z,10.50
2023-02-18T19:18:37.993Z,10.50
2023-02-18T19:22:42.592Z,10.50
2023-02-18T19:26:45.602Z,10.50
2023-02-18T19:30:50.615Z,10.60
2023-02-18T19:34:53.633Z,10.60
2023-02-18T19:38:56.655Z,10.60
2023-02-18T19:43:01.536Z,10.60
2023-02-18T19:47:07.210Z,10.60
2023-02-18T19:51:11.116Z,10.60
2023-02-18T19:55:17.343Z,10.60
2023-02-18T19:59:25.187Z,10.60
2023-02-18T20:03:30.259Z,10.60
2023-02-18T20:07:37.413Z,10.60
2023-02-18T20:11:40.504Z,10.60
2023-02-18T20:15:46.868Z,10.60
2023-02-18T20:19:51.412Z,10.70
2023-02-18T20:23:56.576Z,10.70
2023-02-18T20:28:01.530Z,10.70
2023-02-18T20:32:07.579Z,10.70
2023-02-18T20:36:14.877Z,10.70
2023-02-18T20:40:21.347Z,10.80
2023-02-18T20:44:26.055Z,10.80
2023-02-18T20:48:32.188Z,10.80
2023-02-18T20:52:36.875Z,10.80
2023-02-18T20:56:40.735Z,10.80
2023-02-18T21:00:43.749Z,10.80
2023-02-18T21:04:46.850Z,10.90
2023-02-18T21:08:54.953Z,10.90
2023-02-18T21:13:01.236Z,10.90
2023-02-18T21:17:05.110Z,10.90
2023-02-18T21:21:10.290Z,10.90
2023-02-18T21:25:16.228Z,11.00
2023-02-18T21:29:27.631Z,10.90
2023-02-18T21:33:33.083Z,10.90
2023-02-18T21:37:36.875Z,10.90
2023-02-18T21:41:41.713Z,10.90
2023-02-18T21:45:49.003Z,11.00
2023-02-18T21:49:54.333Z,10.90
2023-02-18T21:53:57.359Z,10.90
2023-02-18T21:58:01.919Z,10.90
2023-02-18T22:02:06.424Z,10.90
2023-02-18T22:06:10.536Z,10.90
2023-02-18T22:10:15.840Z,10.80
2023-02-18T22:14:22.699Z,10.90
2023-02-18T22:18:27.045Z,10.90
2023-02-18T22:22:32.100Z,10.80
2023-02-18T22:26:37.132Z,10.90
2023-02-18T22:30:42.490Z,10.90
2023-02-18T22:34:45.555Z,10.90
2023-02-18T22:38:49.353Z,10.80
2023-02-18T22:42:55.349Z,10.80
2023-02-18T22:47:02.261Z,10.80
2023-02-18T22:51:07.713Z,10.80
2023-02-18T22:55:10.913Z,10.80
2023-02-18T22:59:14.772Z,10.80
2023-02-18T23:03:19.227Z,10.80
2023-02-18T23:07:26.542Z,10.80
2023-02-18T23:11:33.210Z,10.80
2023-02-18T23:15:36.281Z,10.80
2023-02-18T23:19:54.395Z,10.80
2023-02-18T23:23:57.749Z,10.80
2023-02-18T23:28:01.107Z,10.70
2023-02-18T23:32:08.364Z,10.70
2023-02-18T23:36:15.436Z,10.80
2023-02-18T23:40:18.867Z,10.70
2023-02-18T23:44:24.397Z,10.70
2023-02-18T23:48:29.436Z,10.60
2023-02-18T23:52:34.287Z,10.60
2023-02-18T23:56:39.645Z,10.60
